sensor_id;sensor_type;location;lat;lon;timestamp;temperature;humidity
39675;DHT22;27790;50.840;4.386;2023-06-14T00:02:12;22.80;59.40
39675;DHT22;27790;50.840;4.386;2023-06-14T00:04:38;22.80;59.70
39675;DHT22;27790;50.840;4.386;2023-06-14T00:07:07;22.80;60.20
39675;DHT22;27790;50.840;4.386;2023-06-14T00:09:35;22.60;59.90
39675;DHT22;27790;50.840;4.386;2023-06-14T00:12:01;22.60;60.00
39675;DHT22;27790;50.840;4.386;2023-06-14T00:14:27;22.60;60.00
39675;DHT22;27790;50.840;4.386;2023-06-14T00:16:52;22.60;60.00
39675;DHT22;27790;50.840;4.386;2023-06-14T00:19:18;22.60;60.00
39675;DHT22;27790;50.840;4.386;2023-06-14T00:21:45;22.60;60.30
39675;DHT22;27790;50.840;4.386;2023-06-14T00:24:11;22.50;60.30
39675;DHT22;27790;50.840;4.386;2023-06-14T00:26:36;22.50;60.50
39675;DHT22;27790;50.840;4.386;2023-06-14T00:29:02;22.50;60.60
39675;DHT22;27790;50.840;4.386;2023-06-14T00:31:28;22.50;60.50
39675;DHT22;27790;50.840;4.386;2023-06-14T00:33:54;22.50;60.50
39675;DHT22;27790;50.840;4.386;2023-06-14T00:36:19;22.40;60.60
39675;DHT22;27790;50.840;4.386;2023-06-14T00:38:45;22.40;61.20
39675;DHT22;27790;50.840;4.386;2023-06-14T00:41:10;22.30;60.90
39675;DHT22;27790;50.840;4.386;2023-06-14T00:43:37;22.30;61.10
39675;DHT22;27790;50.840;4.386;2023-06-14T00:46:02;22.20;61.30
39675;DHT22;27790;50.840;4.386;2023-06-14T00:48:28;22.20;61.40
39675;DHT22;27790;50.840;4.386;2023-06-14T00:50:54;22.20;61.70
39675;DHT22;27790;50.840;4.386;2023-06-14T00:53:20;22.10;61.50
39675;DHT22;27790;50.840;4.386;2023-06-14T00:55:48;22.10;61.70
39675;DHT22;27790;50.840;4.386;2023-06-14T00:58:14;22.00;61.70
39675;DHT22;27790;50.840;4.386;2023-06-14T01:00:40;22.00;61.80
39675;DHT22;27790;50.840;4.386;2023-06-14T01:03:05;22.00;61.90
39675;DHT22;27790;50.840;4.386;2023-06-14T01:05:31;22.00;62.00
39675;DHT22;27790;50.840;4.386;2023-06-14T01:16:05;21.90;62.20
39675;DHT22;27790;50.840;4.386;2023-06-14T01:18:32;21.90;62.30
39675;DHT22;27790;50.840;4.386;2023-06-14T01:20:58;21.80;62.30
39675;DHT22;27790;50.840;4.386;2023-06-14T01:23:25;21.80;62.40
39675;DHT22;27790;50.840;4.386;2023-06-14T01:25:58;21.80;62.50
39675;DHT22;27790;50.840;4.386;2023-06-14T01:28:25;21.80;62.60
39675;DHT22;27790;50.840;4.386;2023-06-14T01:30:53;21.80;62.80
39675;DHT22;27790;50.840;4.386;2023-06-14T01:33:26;21.70;62.70
39675;DHT22;27790;50.840;4.386;2023-06-14T01:35:53;21.70;62.90
39675;DHT22;27790;50.840;4.386;2023-06-14T01:38:21;21.60;63.10
39675;DHT22;27790;50.840;4.386;2023-06-14T01:40:48;21.60;63.30
39675;DHT22;27790;50.840;4.386;2023-06-14T01:43:15;21.50;63.40
39675;DHT22;27790;50.840;4.386;2023-06-14T01:45:45;21.50;63.60
39675;DHT22;27790;50.840;4.386;2023-06-14T01:48:12;21.50;63.90
39675;DHT22;27790;50.840;4.386;2023-06-14T01:50:39;21.50;64.00
39675;DHT22;27790;50.840;4.386;2023-06-14T01:53:07;21.40;64.10
39675;DHT22;27790;50.840;4.386;2023-06-14T01:55:34;21.40;64.30
39675;DHT22;27790;50.840;4.386;2023-06-14T01:58:03;21.30;64.30
39675;DHT22;27790;50.840;4.386;2023-06-14T02:00:28;21.20;64.40
39675;DHT22;27790;50.840;4.386;2023-06-14T02:02:54;21.20;64.50
39675;DHT22;27790;50.840;4.386;2023-06-14T02:05:20;21.20;64.50
39675;DHT22;27790;50.840;4.386;2023-06-14T02:07:46;21.20;64.70
39675;DHT22;27790;50.840;4.386;2023-06-14T02:10:12;21.00;64.90
39675;DHT22;27790;50.840;4.386;2023-06-14T02:12:37;21.00;65.20
39675;DHT22;27790;50.840;4.386;2023-06-14T02:15:03;20.90;65.40
39675;DHT22;27790;50.840;4.386;2023-06-14T02:17:29;20.90;65.50
39675;DHT22;27790;50.840;4.386;2023-06-14T02:19:55;20.90;65.80
39675;DHT22;27790;50.840;4.386;2023-06-14T02:22:22;20.80;65.70
39675;DHT22;27790;50.840;4.386;2023-06-14T02:24:48;20.80;65.80
39675;DHT22;27790;50.840;4.386;2023-06-14T02:27:14;20.80;65.90
39675;DHT22;27790;50.840;4.386;2023-06-14T02:29:39;20.80;66.00
39675;DHT22;27790;50.840;4.386;2023-06-14T02:32:05;20.80;66.10
39675;DHT22;27790;50.840;4.386;2023-06-14T02:34:33;20.70;66.10
39675;DHT22;27790;50.840;4.386;2023-06-14T02:36:59;20.70;66.30
39675;DHT22;27790;50.840;4.386;2023-06-14T02:39:25;20.70;66.30
39675;DHT22;27790;50.840;4.386;2023-06-14T02:41:50;20.60;66.50
39675;DHT22;27790;50.840;4.386;2023-06-14T02:44:18;20.60;66.60
39675;DHT22;27790;50.840;4.386;2023-06-14T02:46:44;20.60;66.70
39675;DHT22;27790;50.840;4.386;2023-06-14T02:49:11;20.50;67.20
39675;DHT22;27790;50.840;4.386;2023-06-14T02:51:36;20.40;66.90
39675;DHT22;27790;50.840;4.386;2023-06-14T02:54:02;20.40;67.10
39675;DHT22;27790;50.840;4.386;2023-06-14T02:56:29;20.30;67.20
39675;DHT22;27790;50.840;4.386;2023-06-14T02:58:54;20.30;67.50
39675;DHT22;27790;50.840;4.386;2023-06-14T03:01:20;20.20;67.60
39675;DHT22;27790;50.840;4.386;2023-06-14T03:03:47;20.20;67.80
39675;DHT22;27790;50.840;4.386;2023-06-14T03:06:12;20.10;67.80
39675;DHT22;27790;50.840;4.386;2023-06-14T03:08:40;20.10;68.00
39675;DHT22;27790;50.840;4.386;2023-06-14T03:11:07;20.10;68.10
39675;DHT22;27790;50.840;4.386;2023-06-14T03:13:33;20.10;68.00
39675;DHT22;27790;50.840;4.386;2023-06-14T03:15:59;20.10;68.10
39675;DHT22;27790;50.840;4.386;2023-06-14T03:18:29;20.10;68.30
39675;DHT22;27790;50.840;4.386;2023-06-14T03:20:55;20.10;68.30
39675;DHT22;27790;50.840;4.386;2023-06-14T03:23:23;20.00;68.30
39675;DHT22;27790;50.840;4.386;2023-06-14T03:25:48;20.00;68.30
39675;DHT22;27790;50.840;4.386;2023-06-14T03:28:14;20.00;68.40
39675;DHT22;27790;50.840;4.386;2023-06-14T03:30:40;20.00;68.70
39675;DHT22;27790;50.840;4.386;2023-06-14T03:33:05;20.00;68.50
39675;DHT22;27790;50.840;4.386;2023-06-14T03:35:31;20.00;68.50
39675;DHT22;27790;50.840;4.386;2023-06-14T03:37:57;20.00;68.60
39675;DHT22;27790;50.840;4.386;2023-06-14T03:40:22;20.00;68.70
39675;DHT22;27790;50.840;4.386;2023-06-14T03:42:52;20.00;68.40
39675;DHT22;27790;50.840;4.386;2023-06-14T03:45:18;19.90;68.70
39675;DHT22;27790;50.840;4.386;2023-06-14T03:47:43;19.90;68.90
39675;DHT22;27790;50.840;4.386;2023-06-14T03:50:09;19.90;68.90
39675;DHT22;27790;50.840;4.386;2023-06-14T03:52:36;19.80;68.80
39675;DHT22;27790;50.840;4.386;2023-06-14T03:55:02;19.80;69.00
39675;DHT22;27790;50.840;4.386;2023-06-14T03:57:29;19.80;69.20
39675;DHT22;27790;50.840;4.386;2023-06-14T03:59:54;19.80;69.30
39675;DHT22;27790;50.840;4.386;2023-06-14T04:02:20;19.80;69.40
39675;DHT22;27790;50.840;4.386;2023-06-14T04:04:46;19.70;69.30
39675;DHT22;27790;50.840;4.386;2023-06-14T04:07:14;19.80;69.30
39675;DHT22;27790;50.840;4.386;2023-06-14T04:09:41;19.70;69.90
39675;DHT22;27790;50.840;4.386;2023-06-14T04:12:07;19.70;69.50
39675;DHT22;27790;50.840;4.386;2023-06-14T04:14:37;19.70;69.60
39675;DHT22;27790;50.840;4.386;2023-06-14T04:17:03;19.70;69.50
39675;DHT22;27790;50.840;4.386;2023-06-14T04:19:28;19.60;69.80
39675;DHT22;27790;50.840;4.386;2023-06-14T04:21:54;19.70;69.70
39675;DHT22;27790;50.840;4.386;2023-06-14T04:24:20;20.10;68.70
39675;DHT22;27790;50.840;4.386;2023-06-14T04:26:46;20.70;67.70
39675;DHT22;27790;50.840;4.386;2023-06-14T04:29:14;21.30;66.00
39675;DHT22;27790;50.840;4.386;2023-06-14T04:31:42;21.90;64.60
39675;DHT22;27790;50.840;4.386;2023-06-14T04:34:08;22.30;63.80
39675;DHT22;27790;50.840;4.386;2023-06-14T04:36:34;22.80;63.00
39675;DHT22;27790;50.840;4.386;2023-06-14T04:39:02;23.20;61.80
39675;DHT22;27790;50.840;4.386;2023-06-14T04:41:29;23.40;61.20
39675;DHT22;27790;50.840;4.386;2023-06-14T04:43:57;23.60;60.80
39675;DHT22;27790;50.840;4.386;2023-06-14T04:46:29;23.90;60.20
39675;DHT22;27790;50.840;4.386;2023-06-14T04:48:55;24.10;59.80
39675;DHT22;27790;50.840;4.386;2023-06-14T04:51:22;24.30;59.40
39675;DHT22;27790;50.840;4.386;2023-06-14T04:53:55;24.60;58.90
39675;DHT22;27790;50.840;4.386;2023-06-14T04:56:23;24.50;58.80
39675;DHT22;27790;50.840;4.386;2023-06-14T04:58:48;24.80;58.50
39675;DHT22;27790;50.840;4.386;2023-06-14T05:01:14;25.00;57.90
39675;DHT22;27790;50.840;4.386;2023-06-14T05:03:40;25.00;57.90
39675;DHT22;27790;50.840;4.386;2023-06-14T05:06:06;25.20;57.50
39675;DHT22;27790;50.840;4.386;2023-06-14T05:08:32;25.10;57.50
39675;DHT22;27790;50.840;4.386;2023-06-14T05:10:57;25.20;57.40
39675;DHT22;27790;50.840;4.386;2023-06-14T05:13:23;25.00;57.50
39675;DHT22;27790;50.840;4.386;2023-06-14T05:15:49;25.10;57.90
39675;DHT22;27790;50.840;4.386;2023-06-14T05:18:14;25.40;57.20
39675;DHT22;27790;50.840;4.386;2023-06-14T05:20:41;25.50;56.80
39675;DHT22;27790;50.840;4.386;2023-06-14T05:23:10;25.50;56.80
39675;DHT22;27790;50.840;4.386;2023-06-14T05:25:44;25.60;56.80
39675;DHT22;27790;50.840;4.386;2023-06-14T05:28:10;25.90;56.40
39675;DHT22;27790;50.840;4.386;2023-06-14T05:30:37;26.30;56.20
39675;DHT22;27790;50.840;4.386;2023-06-14T05:33:03;26.80;55.90
39675;DHT22;27790;50.840;4.386;2023-06-14T05:35:29;27.10;54.90
39675;DHT22;27790;50.840;4.386;2023-06-14T05:37:55;27.40;54.50
39675;DHT22;27790;50.840;4.386;2023-06-14T05:40:20;27.50;54.70
39675;DHT22;27790;50.840;4.386;2023-06-14T05:42:46;27.60;54.00
39675;DHT22;27790;50.840;4.386;2023-06-14T05:45:11;27.80;54.40
39675;DHT22;27790;50.840;4.386;2023-06-14T05:47:37;28.00;54.00
39675;DHT22;27790;50.840;4.386;2023-06-14T05:50:03;28.20;53.30
39675;DHT22;27790;50.840;4.386;2023-06-14T05:52:29;27.80;54.00
39675;DHT22;27790;50.840;4.386;2023-06-14T05:54:55;27.70;54.60
39675;DHT22;27790;50.840;4.386;2023-06-14T05:57:20;27.30;54.50
39675;DHT22;27790;50.840;4.386;2023-06-14T05:59:46;27.30;54.50
39675;DHT22;27790;50.840;4.386;2023-06-14T06:02:12;27.10;54.70
39675;DHT22;27790;50.840;4.386;2023-06-14T06:04:37;27.30;54.90
39675;DHT22;27790;50.840;4.386;2023-06-14T06:07:03;27.80;54.40
39675;DHT22;27790;50.840;4.386;2023-06-14T06:09:29;28.20;53.50
39675;DHT22;27790;50.840;4.386;2023-06-14T06:11:55;28.40;53.50
39675;DHT22;27790;50.840;4.386;2023-06-14T06:14:21;28.40;53.40
39675;DHT22;27790;50.840;4.386;2023-06-14T06:16:46;28.80;53.20
39675;DHT22;27790;50.840;4.386;2023-06-14T06:19:15;28.90;52.80
39675;DHT22;27790;50.840;4.386;2023-06-14T06:21:40;29.20;52.60
39675;DHT22;27790;50.840;4.386;2023-06-14T06:24:09;29.50;52.30
39675;DHT22;27790;50.840;4.386;2023-06-14T06:26:34;29.60;52.10
39675;DHT22;27790;50.840;4.386;2023-06-14T06:29:00;29.30;52.50
39675;DHT22;27790;50.840;4.386;2023-06-14T06:31:26;29.30;52.60
39675;DHT22;27790;50.840;4.386;2023-06-14T06:33:55;29.40;52.60
39675;DHT22;27790;50.840;4.386;2023-06-14T06:36:21;29.70;52.40
39675;DHT22;27790;50.840;4.386;2023-06-14T06:38:47;29.80;52.00
39675;DHT22;27790;50.840;4.386;2023-06-14T06:41:13;29.80;51.70
39675;DHT22;27790;50.840;4.386;2023-06-14T06:43:39;29.90;51.70
39675;DHT22;27790;50.840;4.386;2023-06-14T06:46:04;30.10;51.90
39675;DHT22;27790;50.840;4.386;2023-06-14T06:48:30;30.30;51.60
39675;DHT22;27790;50.840;4.386;2023-06-14T06:50:56;30.50;51.20
39675;DHT22;27790;50.840;4.386;2023-06-14T06:53:22;30.70;51.70
39675;DHT22;27790;50.840;4.386;2023-06-14T06:55:50;30.50;51.20
39675;DHT22;27790;50.840;4.386;2023-06-14T06:58:16;30.70;51.20
39675;DHT22;27790;50.840;4.386;2023-06-14T07:00:42;30.80;50.60
39675;DHT22;27790;50.840;4.386;2023-06-14T07:03:07;30.80;49.60
39675;DHT22;27790;50.840;4.386;2023-06-14T07:05:33;30.90;50.40
39675;DHT22;27790;50.840;4.386;2023-06-14T07:07:59;31.20;50.10
39675;DHT22;27790;50.840;4.386;2023-06-14T07:10:25;31.50;49.60
39675;DHT22;27790;50.840;4.386;2023-06-14T07:12:51;31.00;50.00
39675;DHT22;27790;50.840;4.386;2023-06-14T07:15:16;30.90;50.50
39675;DHT22;27790;50.840;4.386;2023-06-14T07:17:42;30.90;50.20
39675;DHT22;27790;50.840;4.386;2023-06-14T07:20:08;31.30;50.00
39675;DHT22;27790;50.840;4.386;2023-06-14T07:22:41;31.40;49.50
39675;DHT22;27790;50.840;4.386;2023-06-14T07:25:11;31.10;49.80
39675;DHT22;27790;50.840;4.386;2023-06-14T07:28:00;31.50;50.10
39675;DHT22;27790;50.840;4.386;2023-06-14T07:30:25;31.70;49.80
39675;DHT22;27790;50.840;4.386;2023-06-14T07:32:53;31.40;49.90
39675;DHT22;27790;50.840;4.386;2023-06-14T07:35:18;31.40;50.00
39675;DHT22;27790;50.840;4.386;2023-06-14T07:37:44;31.40;49.70
39675;DHT22;27790;50.840;4.386;2023-06-14T07:40:12;31.50;49.70
39675;DHT22;27790;50.840;4.386;2023-06-14T07:42:38;31.70;49.90
39675;DHT22;27790;50.840;4.386;2023-06-14T07:45:07;31.90;50.40
39675;DHT22;27790;50.840;4.386;2023-06-14T07:47:33;32.10;49.70
39675;DHT22;27790;50.840;4.386;2023-06-14T07:49:59;32.20;50.10
39675;DHT22;27790;50.840;4.386;2023-06-14T07:52:24;32.40;48.80
39675;DHT22;27790;50.840;4.386;2023-06-14T07:54:52;32.40;49.10
39675;DHT22;27790;50.840;4.386;2023-06-14T07:57:18;32.40;49.50
39675;DHT22;27790;50.840;4.386;2023-06-14T07:59:45;32.60;49.30
39675;DHT22;27790;50.840;4.386;2023-06-14T08:02:11;32.80;48.80
39675;DHT22;27790;50.840;4.386;2023-06-14T08:04:37;32.60;48.90
39675;DHT22;27790;50.840;4.386;2023-06-14T08:07:03;32.70;49.00
39675;DHT22;27790;50.840;4.386;2023-06-14T08:09:29;32.90;48.90
39675;DHT22;27790;50.840;4.386;2023-06-14T08:11:55;32.80;49.10
39675;DHT22;27790;50.840;4.386;2023-06-14T08:14:21;32.90;49.40
39675;DHT22;27790;50.840;4.386;2023-06-14T08:16:47;33.00;48.20
39675;DHT22;27790;50.840;4.386;2023-06-14T08:19:12;33.00;47.40
39675;DHT22;27790;50.840;4.386;2023-06-14T08:21:38;32.70;48.60
39675;DHT22;27790;50.840;4.386;2023-06-14T08:24:03;33.00;49.30
39675;DHT22;27790;50.840;4.386;2023-06-14T08:26:30;33.40;49.40
39675;DHT22;27790;50.840;4.386;2023-06-14T08:28:57;33.40;48.40
39675;DHT22;27790;50.840;4.386;2023-06-14T08:31:23;33.40;48.80
39675;DHT22;27790;50.840;4.386;2023-06-14T08:33:50;33.50;49.20
39675;DHT22;27790;50.840;4.386;2023-06-14T08:36:18;33.50;47.90
39675;DHT22;27790;50.840;4.386;2023-06-14T08:38:44;33.20;48.30
39675;DHT22;27790;50.840;4.386;2023-06-14T08:41:11;32.80;48.20
39675;DHT22;27790;50.840;4.386;2023-06-14T08:43:39;32.40;48.20
39675;DHT22;27790;50.840;4.386;2023-06-14T08:46:06;31.80;48.70
39675;DHT22;27790;50.840;4.386;2023-06-14T08:48:34;31.80;48.90
39675;DHT22;27790;50.840;4.386;2023-06-14T08:51:00;31.60;49.20
39675;DHT22;27790;50.840;4.386;2023-06-14T08:53:33;31.30;49.90
39675;DHT22;27790;50.840;4.386;2023-06-14T08:56:03;31.50;50.60
39675;DHT22;27790;50.840;4.386;2023-06-14T08:58:30;31.80;49.60
39675;DHT22;27790;50.840;4.386;2023-06-14T09:00:57;32.30;50.00
39675;DHT22;27790;50.840;4.386;2023-06-14T09:03:24;31.80;49.10
39675;DHT22;27790;50.840;4.386;2023-06-14T09:05:58;31.50;49.90
39675;DHT22;27790;50.840;4.386;2023-06-14T09:08:25;31.60;50.00
39675;DHT22;27790;50.840;4.386;2023-06-14T09:10:54;31.80;50.50
39675;DHT22;27790;50.840;4.386;2023-06-14T09:13:20;32.40;50.20
39675;DHT22;27790;50.840;4.386;2023-06-14T09:15:46;32.70;50.10
39675;DHT22;27790;50.840;4.386;2023-06-14T09:18:11;32.80;50.50
39675;DHT22;27790;50.840;4.386;2023-06-14T09:20:37;33.20;50.50
39675;DHT22;27790;50.840;4.386;2023-06-14T09:23:04;33.50;50.10
39675;DHT22;27790;50.840;4.386;2023-06-14T09:25:30;33.60;50.10
39675;DHT22;27790;50.840;4.386;2023-06-14T09:27:56;33.70;49.90
39675;DHT22;27790;50.840;4.386;2023-06-14T09:30:21;33.00;50.60
39675;DHT22;27790;50.840;4.386;2023-06-14T09:32:47;32.30;49.60
39675;DHT22;27790;50.840;4.386;2023-06-14T09:35:17;31.60;50.20
39675;DHT22;27790;50.840;4.386;2023-06-14T09:37:43;31.70;50.10
39675;DHT22;27790;50.840;4.386;2023-06-14T09:40:09;32.20;50.40
39675;DHT22;27790;50.840;4.386;2023-06-14T09:42:36;32.10;49.00
39675;DHT22;27790;50.840;4.386;2023-06-14T09:45:03;31.90;50.00
39675;DHT22;27790;50.840;4.386;2023-06-14T09:47:30;32.40;49.40
39675;DHT22;27790;50.840;4.386;2023-06-14T09:49:55;32.90;49.50
39675;DHT22;27790;50.840;4.386;2023-06-14T09:52:22;33.20;48.50
39675;DHT22;27790;50.840;4.386;2023-06-14T09:54:52;32.90;48.00
39675;DHT22;27790;50.840;4.386;2023-06-14T09:57:23;31.60;48.00
39675;DHT22;27790;50.840;4.386;2023-06-14T09:59:53;30.70;50.00
39675;DHT22;27790;50.840;4.386;2023-06-14T10:02:29;30.20;50.90
39675;DHT22;27790;50.840;4.386;2023-06-14T10:05:08;29.70;53.00
39675;DHT22;27790;50.840;4.386;2023-06-14T10:07:43;29.30;51.20
39675;DHT22;27790;50.840;4.386;2023-06-14T10:10:10;29.00;50.80
39675;DHT22;27790;50.840;4.386;2023-06-14T10:12:36;28.40;50.40
39675;DHT22;27790;50.840;4.386;2023-06-14T10:15:02;28.10;51.00
39675;DHT22;27790;50.840;4.386;2023-06-14T10:18:07;27.90;52.20
39675;DHT22;27790;50.840;4.386;2023-06-14T10:23:16;27.60;52.70
39675;DHT22;27790;50.840;4.386;2023-06-14T10:25:43;27.60;52.60
39675;DHT22;27790;50.840;4.386;2023-06-14T10:28:19;27.50;52.70
39675;DHT22;27790;50.840;4.386;2023-06-14T10:31:02;27.60;52.10
39675;DHT22;27790;50.840;4.386;2023-06-14T10:36:32;27.60;52.50
39675;DHT22;27790;50.840;4.386;2023-06-14T10:39:09;27.70;53.40
39675;DHT22;27790;50.840;4.386;2023-06-14T10:41:39;27.70;51.10
39675;DHT22;27790;50.840;4.386;2023-06-14T10:46:52;27.90;52.60
39675;DHT22;27790;50.840;4.386;2023-06-14T10:49:19;27.90;53.30
39675;DHT22;27790;50.840;4.386;2023-06-14T10:51:51;27.70;52.10
39675;DHT22;27790;50.840;4.386;2023-06-14T10:54:21;27.70;52.70
39675;DHT22;27790;50.840;4.386;2023-06-14T10:56:51;27.70;51.80
39675;DHT22;27790;50.840;4.386;2023-06-14T10:59:18;27.80;51.90
39675;DHT22;27790;50.840;4.386;2023-06-14T11:04:47;27.80;50.20
39675;DHT22;27790;50.840;4.386;2023-06-14T11:07:41;27.80;50.40
39675;DHT22;27790;50.840;4.386;2023-06-14T11:12:56;27.70;51.00
39675;DHT22;27790;50.840;4.386;2023-06-14T11:15:28;27.70;51.10
39675;DHT22;27790;50.840;4.386;2023-06-14T11:17:55;27.80;51.50
39675;DHT22;27790;50.840;4.386;2023-06-14T11:20:25;27.80;51.10
39675;DHT22;27790;50.840;4.386;2023-06-14T11:22:52;27.90;51.10
39675;DHT22;27790;50.840;4.386;2023-06-14T11:25:17;27.60;50.40
39675;DHT22;27790;50.840;4.386;2023-06-14T11:27:44;27.40;50.60
39675;DHT22;27790;50.840;4.386;2023-06-14T11:30:11;27.30;51.10
39675;DHT22;27790;50.840;4.386;2023-06-14T11:32:38;27.40;51.30
39675;DHT22;27790;50.840;4.386;2023-06-14T11:35:04;27.50;51.70
39675;DHT22;27790;50.840;4.386;2023-06-14T11:37:31;27.60;51.20
39675;DHT22;27790;50.840;4.386;2023-06-14T11:40:00;27.40;50.70
39675;DHT22;27790;50.840;4.386;2023-06-14T11:42:29;27.20;50.80
39675;DHT22;27790;50.840;4.386;2023-06-14T11:44:55;27.20;50.80
39675;DHT22;27790;50.840;4.386;2023-06-14T11:47:21;27.30;51.10
39675;DHT22;27790;50.840;4.386;2023-06-14T11:49:47;27.50;51.60
39675;DHT22;27790;50.840;4.386;2023-06-14T11:52:13;27.60;50.60
39675;DHT22;27790;50.840;4.386;2023-06-14T11:54:39;27.70;50.90
39675;DHT22;27790;50.840;4.386;2023-06-14T11:57:08;27.70;51.20
39675;DHT22;27790;50.840;4.386;2023-06-14T11:59:40;27.40;50.20
39675;DHT22;27790;50.840;4.386;2023-06-14T12:02:06;27.30;51.50
39675;DHT22;27790;50.840;4.386;2023-06-14T12:04:33;27.40;51.80
39675;DHT22;27790;50.840;4.386;2023-06-14T12:07:10;27.30;51.00
39675;DHT22;27790;50.840;4.386;2023-06-14T12:12:22;27.40;51.50
39675;DHT22;27790;50.840;4.386;2023-06-14T12:14:51;27.50;51.40
39675;DHT22;27790;50.840;4.386;2023-06-14T12:17:17;27.60;51.00
39675;DHT22;27790;50.840;4.386;2023-06-14T12:19:45;27.60;50.90
39675;DHT22;27790;50.840;4.386;2023-06-14T12:22:12;27.60;50.50
39675;DHT22;27790;50.840;4.386;2023-06-14T12:24:38;27.60;51.60
39675;DHT22;27790;50.840;4.386;2023-06-14T12:27:05;27.40;49.90
39675;DHT22;27790;50.840;4.386;2023-06-14T12:29:31;27.30;50.60
39675;DHT22;27790;50.840;4.386;2023-06-14T12:31:57;27.50;50.80
39675;DHT22;27790;50.840;4.386;2023-06-14T12:34:24;27.60;48.90
39675;DHT22;27790;50.840;4.386;2023-06-14T12:36:50;27.70;49.80
39675;DHT22;27790;50.840;4.386;2023-06-14T12:39:16;27.80;49.80
39675;DHT22;27790;50.840;4.386;2023-06-14T12:41:42;28.00;49.80
39675;DHT22;27790;50.840;4.386;2023-06-14T12:44:08;28.00;49.10
39675;DHT22;27790;50.840;4.386;2023-06-14T12:46:34;27.90;49.10
39675;DHT22;27790;50.840;4.386;2023-06-14T12:49:00;27.70;48.70
39675;DHT22;27790;50.840;4.386;2023-06-14T12:51:26;27.70;49.20
39675;DHT22;27790;50.840;4.386;2023-06-14T12:53:52;27.60;49.10
39675;DHT22;27790;50.840;4.386;2023-06-14T12:56:18;27.40;50.00
39675;DHT22;27790;50.840;4.386;2023-06-14T12:58:43;27.10;50.10
39675;DHT22;27790;50.840;4.386;2023-06-14T13:01:09;27.20;49.80
39675;DHT22;27790;50.840;4.386;2023-06-14T13:03:35;27.10;50.30
39675;DHT22;27790;50.840;4.386;2023-06-14T13:06:01;27.00;50.10
39675;DHT22;27790;50.840;4.386;2023-06-14T13:08:27;27.00;50.00
39675;DHT22;27790;50.840;4.386;2023-06-14T13:10:53;27.10;50.00
39675;DHT22;27790;50.840;4.386;2023-06-14T13:13:19;27.10;49.90
39675;DHT22;27790;50.840;4.386;2023-06-14T13:15:45;27.10;49.90
39675;DHT22;27790;50.840;4.386;2023-06-14T13:18:11;27.20;50.30
39675;DHT22;27790;50.840;4.386;2023-06-14T13:20:39;27.20;50.20
39675;DHT22;27790;50.840;4.386;2023-06-14T13:23:05;27.20;51.70
39675;DHT22;27790;50.840;4.386;2023-06-14T13:25:36;27.40;50.30
39675;DHT22;27790;50.840;4.386;2023-06-14T13:28:04;27.50;50.40
39675;DHT22;27790;50.840;4.386;2023-06-14T13:30:31;27.60;50.10
39675;DHT22;27790;50.840;4.386;2023-06-14T13:32:57;27.60;49.40
39675;DHT22;27790;50.840;4.386;2023-06-14T13:35:24;27.40;49.90
39675;DHT22;27790;50.840;4.386;2023-06-14T13:37:50;27.40;50.00
39675;DHT22;27790;50.840;4.386;2023-06-14T13:40:15;27.40;49.70
39675;DHT22;27790;50.840;4.386;2023-06-14T13:42:41;27.40;48.90
39675;DHT22;27790;50.840;4.386;2023-06-14T13:45:08;27.40;49.80
39675;DHT22;27790;50.840;4.386;2023-06-14T13:47:34;27.40;49.20
39675;DHT22;27790;50.840;4.386;2023-06-14T13:50:00;27.40;48.70
39675;DHT22;27790;50.840;4.386;2023-06-14T13:52:25;27.40;48.90
39675;DHT22;27790;50.840;4.386;2023-06-14T13:54:51;27.50;48.30
39675;DHT22;27790;50.840;4.386;2023-06-14T13:57:17;27.60;47.40
39675;DHT22;27790;50.840;4.386;2023-06-14T13:59:44;27.70;47.30
39675;DHT22;27790;50.840;4.386;2023-06-14T14:02:13;27.80;48.00
39675;DHT22;27790;50.840;4.386;2023-06-14T14:04:39;27.90;46.60
39675;DHT22;27790;50.840;4.386;2023-06-14T14:07:05;28.00;46.60
39675;DHT22;27790;50.840;4.386;2023-06-14T14:09:35;28.00;46.80
39675;DHT22;27790;50.840;4.386;2023-06-14T14:12:01;27.80;47.20
39675;DHT22;27790;50.840;4.386;2023-06-14T14:14:33;27.60;46.90
39675;DHT22;27790;50.840;4.386;2023-06-14T14:16:59;27.40;47.20
39675;DHT22;27790;50.840;4.386;2023-06-14T14:19:24;27.40;47.50
39675;DHT22;27790;50.840;4.386;2023-06-14T14:21:50;27.50;47.80
39675;DHT22;27790;50.840;4.386;2023-06-14T14:24:16;27.60;47.50
39675;DHT22;27790;50.840;4.386;2023-06-14T14:26:42;27.50;47.20
39675;DHT22;27790;50.840;4.386;2023-06-14T14:29:08;27.60;47.20
39675;DHT22;27790;50.840;4.386;2023-06-14T14:31:34;27.70;48.10
39675;DHT22;27790;50.840;4.386;2023-06-14T14:34:00;27.60;46.50
39675;DHT22;27790;50.840;4.386;2023-06-14T14:36:25;27.40;46.20
39675;DHT22;27790;50.840;4.386;2023-06-14T14:38:51;27.30;48.30
39675;DHT22;27790;50.840;4.386;2023-06-14T14:41:17;27.40;46.60
39675;DHT22;27790;50.840;4.386;2023-06-14T14:43:43;27.40;46.80
39675;DHT22;27790;50.840;4.386;2023-06-14T14:46:08;27.50;46.90
39675;DHT22;27790;50.840;4.386;2023-06-14T14:48:34;27.30;47.00
39675;DHT22;27790;50.840;4.386;2023-06-14T14:51:00;27.20;47.80
39675;DHT22;27790;50.840;4.386;2023-06-14T14:53:26;27.10;47.70
39675;DHT22;27790;50.840;4.386;2023-06-14T14:55:51;27.10;48.00
39675;DHT22;27790;50.840;4.386;2023-06-14T14:58:17;27.10;46.60
39675;DHT22;27790;50.840;4.386;2023-06-14T15:00:44;27.20;47.30
39675;DHT22;27790;50.840;4.386;2023-06-14T15:03:10;27.20;46.30
39675;DHT22;27790;50.840;4.386;2023-06-14T15:05:36;27.20;46.90
39675;DHT22;27790;50.840;4.386;2023-06-14T15:08:02;27.40;46.60
39675;DHT22;27790;50.840;4.386;2023-06-14T15:10:28;27.30;45.60
39675;DHT22;27790;50.840;4.386;2023-06-14T15:12:54;27.10;45.80
39675;DHT22;27790;50.840;4.386;2023-06-14T15:15:20;27.10;45.90
39675;DHT22;27790;50.840;4.386;2023-06-14T15:17:45;27.10;46.50
39675;DHT22;27790;50.840;4.386;2023-06-14T15:20:11;27.10;46.90
39675;DHT22;27790;50.840;4.386;2023-06-14T15:22:39;27.20;46.80
39675;DHT22;27790;50.840;4.386;2023-06-14T15:25:05;27.20;47.00
39675;DHT22;27790;50.840;4.386;2023-06-14T15:27:30;27.10;46.80
39675;DHT22;27790;50.840;4.386;2023-06-14T15:29:56;27.10;47.40
39675;DHT22;27790;50.840;4.386;2023-06-14T15:32:22;27.10;47.30
39675;DHT22;27790;50.840;4.386;2023-06-14T15:34:47;27.10;47.30
39675;DHT22;27790;50.840;4.386;2023-06-14T15:37:13;27.00;47.60
39675;DHT22;27790;50.840;4.386;2023-06-14T15:39:38;27.00;47.70
39675;DHT22;27790;50.840;4.386;2023-06-14T15:42:04;27.00;48.00
39675;DHT22;27790;50.840;4.386;2023-06-14T15:44:31;27.00;47.60
39675;DHT22;27790;50.840;4.386;2023-06-14T15:46:57;26.90;48.00
39675;DHT22;27790;50.840;4.386;2023-06-14T15:49:22;26.90;48.30
39675;DHT22;27790;50.840;4.386;2023-06-14T15:51:48;27.00;48.10
39675;DHT22;27790;50.840;4.386;2023-06-14T15:54:14;27.00;47.50